Portada
METAR-TAF:

METAR-TAF

Aeroports :

West Memphis, Arkansas, Estats Units d'Amèrica

latitud: 35-08N, longitud: 090-14W, altitud: 65 m

Observació

L'informe es va fer fa 1 hora i 5 minuts, a les 09:53 UTC
Vent 14 kt del Nord amb ràfegues de 22 kt
Temperatura -4°C
Humitat 74%
Pressió 1032 hPa
Visibilitat: 16.1 km
Cel cobert a una alçada de 2500 ft

METAR: KAWM 120953Z AUTO 01014G22KT 10SM OVC025 M04/M08 A3048 RMK AO2 PK WND 02027/0927 SLP326 T10441083 $

Hora: 04:58 (10:58 UTC)


TAF: manca

Observacions i pronòstics meteorològics de més de 4000 aeroports (METAR i TAF).

Les estacions disponibles són els punts grocs i vermells al mapa.

Posi el ratolí al punt desitjat per veure el nom de l'estació.

Feu clic per veure les observacions i els pronòstics meteorològics.

Per canviar el mapa: feu clic els botons verds amb una creu de color negre per apropar; al botó verd amb un guió per allunyar la imatge; o en les fletxes verdes per a mapes adjacents.


METAR-TAF: